Time;durP1;ratioP1;P1;durP2;ratioP2;P2;SDS_P1;SDS_P2;PMS_P1;PMS_P2;Temp;Humidity;BMP_temperature;BMP_pressure;BME280_temperature;BME280_humidity;BME280_pressure;Samples;Min_cycle;Max_cycle;Signal;HPM_P1;HPM_P2
2022/09/18 00:01:24;;;;;;;8.15;5.10;;;;;;;18.50;100.00;98010.88;5111504;28;20301;-57
2022/09/18 00:03:51;;;;;;;7.72;4.80;;;;;;;18.46;100.00;98019.13;5111440;28;20224;-57
2022/09/18 00:06:21;;;;;;;12.23;7.97;;;;;;;18.32;100.00;98014.22;5111201;28;20285;-52
2022/09/18 00:08:51;;;;;;;17.13;11.98;;;;;;;18.26;100.00;97994.56;5111302;28;20193;-52
2022/09/18 00:11:21;;;;;;;23.05;14.00;;;;;;;18.32;100.00;98009.78;5111141;28;20211;-52
2022/09/18 00:13:49;;;;;;;32.05;15.27;;;;;;;18.28;100.00;98015.44;5111098;28;20194;-52
2022/09/18 00:16:18;;;;;;;25.77;15.63;;;;;;;18.25;100.00;98016.53;5109932;28;20190;-52
2022/09/18 00:18:45;;;;;;;21.35;14.90;;;;;;;18.21;100.00;98007.25;5110561;28;20219;-52
2022/09/18 00:21:15;;;;;;;24.52;14.05;;;;;;;18.20;100.00;98017.88;5110976;28;20281;-53
2022/09/18 00:23:42;;;;;;;21.37;12.87;;;;;;;18.18;100.00;98019.78;5110818;27;20201;-57
2022/09/18 00:26:11;;;;;;;17.27;12.10;;;;;;;18.11;100.00;98014.22;5111248;28;20201;-57
2022/09/18 00:28:40;;;;;;;19.53;12.87;;;;;;;18.06;100.00;98011.97;5111316;28;20195;-57
2022/09/18 00:31:09;;;;;;;17.80;12.53;;;;;;;18.04;100.00;97994.69;5111699;28;20583;-57
2022/09/18 00:33:38;;;;;;;15.73;11.83;;;;;;;18.09;100.00;97989.88;5110742;28;20262;-52
2022/09/18 00:36:07;;;;;;;16.08;11.73;;;;;;;18.09;100.00;97993.34;5111213;28;20640;-57
2022/09/18 00:38:35;;;;;;;12.87;10.37;;;;;;;17.94;100.00;98002.50;5110827;28;20226;-52
2022/09/18 00:41:04;;;;;;;19.73;12.00;;;;;;;17.84;100.00;97996.31;5111125;28;20194;-52
2022/09/18 00:43:34;;;;;;;16.10;11.03;;;;;;;17.88;100.00;97999.53;5110389;28;20204;-52
2022/09/18 00:46:07;;;;;;;16.10;10.43;;;;;;;17.86;100.00;98010.16;5110291;28;20202;-57
2022/09/18 00:48:42;;;;;;;10.87;9.73;;;;;;;17.87;100.00;98018.88;5111019;28;20233;-57
2022/09/18 00:51:10;;;;;;;9.97;8.97;;;;;;;17.83;100.00;98018.31;5111080;28;20201;-57
2022/09/18 00:53:44;;;;;;;11.03;9.70;;;;;;;17.79;100.00;98014.25;5110848;28;20282;-58
2022/09/18 00:56:13;;;;;;;9.23;8.33;;;;;;;17.72;100.00;98013.06;5110768;28;20220;-57
2022/09/18 00:58:40;;;;;;;9.73;8.73;;;;;;;17.75;100.00;98011.03;5110839;28;20225;-57
2022/09/18 01:01:09;;;;;;;10.93;8.70;;;;;;;17.74;100.00;98022.50;5110775;28;20198;-57
2022/09/18 01:03:36;;;;;;;9.50;8.57;;;;;;;17.64;100.00;98005.00;5110660;28;20762;-57
2022/09/18 01:06:13;;;;;;;9.37;8.47;;;;;;;17.74;100.00;98025.13;5110799;28;20709;-57
2022/09/18 01:08:54;;;;;;;8.27;7.53;;;;;;;17.60;100.00;98021.94;5110445;28;20202;-58
2022/09/18 01:11:32;;;;;;;8.93;8.10;;;;;;;17.61;100.00;98028.81;5110802;28;20661;-60
2022/09/18 01:14:13;;;;;;;9.33;8.40;;;;;;;17.59;100.00;98022.91;5110732;28;20194;-57
2022/09/18 01:16:48;;;;;;;8.87;7.97;;;;;;;17.60;100.00;98035.06;5110346;28;20632;-57
2022/09/18 01:19:34;;;;;;;9.23;8.43;;;;;;;17.61;100.00;98037.53;5110268;28;20241;-53
2022/09/18 01:22:14;;;;;;;9.47;8.70;;;;;;;17.60;100.00;98029.81;5110178;28;20234;-52
2022/09/18 01:24:54;;;;;;;9.90;8.97;;;;;;;17.55;100.00;98013.59;5110119;28;20761;-56
2022/09/18 01:27:30;;;;;;;10.67;8.93;;;;;;;17.57;100.00;98022.19;5110021;28;20281;-57
2022/09/18 01:30:04;;;;;;;12.87;10.20;;;;;;;17.56;100.00;98020.50;5110293;28;20722;-58
2022/09/18 01:32:38;;;;;;;12.40;10.50;;;;;;;17.62;100.00;98023.47;5110201;28;20632;-58
2022/09/18 01:35:10;;;;;;;13.03;10.17;;;;;;;17.62;100.00;98012.97;5109885;28;20226;-57
2022/09/18 01:37:43;;;;;;;14.37;10.73;;;;;;;17.58;100.00;98022.06;5109974;28;20267;-57
2022/09/18 01:40:16;;;;;;;12.70;10.70;;;;;;;17.64;100.00;98018.97;5109948;28;20204;-56
2022/09/18 01:42:47;;;;;;;12.87;11.40;;;;;;;17.67;100.00;98021.34;5109788;28;20195;-58
2022/09/18 01:45:21;;;;;;;13.87;12.30;;;;;;;17.64;100.00;98032.06;5109836;28;20217;-57
2022/09/18 01:47:52;;;;;;;17.33;13.10;;;;;;;17.63;100.00;98019.06;5110187;28;20187;-57
2022/09/18 01:50:19;;;;;;;15.80;13.13;;;;;;;17.65;100.00;98027.66;5110020;28;20204;-57
2022/09/18 01:52:51;;;;;;;20.10;13.67;;;;;;;17.70;100.00;98038.63;5109434;28;20289;-52
2022/09/18 01:55:22;;;;;;;19.57;13.17;;;;;;;17.77;100.00;98030.13;5109549;28;20281;-52
2022/09/18 01:57:54;;;;;;;23.70;13.27;;;;;;;17.82;100.00;98042.88;5111602;28;20304;-53
2022/09/18 02:00:23;;;;;;;19.33;12.77;;;;;;;17.95;100.00;98053.19;5113772;28;20233;-53
2022/09/18 02:02:55;;;;;;;25.23;14.50;;;;;;;18.04;100.00;98032.28;5114151;28;20210;-53
2022/09/18 02:05:27;;;;;;;21.37;14.67;;;;;;;18.06;100.00;98027.72;5113863;28;20560;-52
2022/09/18 02:08:01;;;;;;;24.07;15.33;;;;;;;18.06;100.00;98021.63;5113615;28;20281;-52
2022/09/18 02:10:31;;;;;;;25.10;14.17;;;;;;;18.07;100.00;98024.13;5113489;28;20773;-52
2022/09/18 02:13:02;;;;;;;25.37;15.20;;;;;;;18.05;100.00;98022.63;5113209;28;20222;-53
2022/09/18 02:15:36;;;;;;;21.97;15.80;;;;;;;18.03;100.00;98022.75;5110294;28;20194;-52
2022/09/18 02:18:08;;;;;;;26.45;16.70;;;;;;;18.04;100.00;98034.91;5113270;28;20305;-52
2022/09/18 02:20:37;;;;;;;24.17;15.90;;;;;;;18.07;100.00;98024.13;5111393;28;20681;-52
2022/09/18 02:23:07;;;;;;;26.00;16.93;;;;;;;18.07;100.00;98023.28;5113598;28;20613;-53
2022/09/18 02:25:40;;;;;;;21.13;15.67;;;;;;;18.04;100.00;98032.28;5113325;28;20191;-52
2022/09/18 02:28:08;;;;;;;20.67;14.85;;;;;;;18.10;100.00;98036.19;5113207;28;20197;-53
2022/09/18 02:30:39;;;;;;;22.25;15.18;;;;;;;18.09;100.00;98035.34;5113456;28;20460;-53
2022/09/18 02:33:24;;;;;;;21.07;15.63;;;;;;;18.09;100.00;98040.59;5113237;28;20244;-53
2022/09/18 02:36:15;;;;;;;19.10;14.60;;;;;;;18.09;100.00;98034.50;5113079;28;20198;-52
2022/09/18 02:38:49;;;;;;;23.35;16.08;;;;;;;18.06;100.00;98053.13;5113184;28;20706;-53
2022/09/18 02:41:25;;;;;;;22.83;15.10;;;;;;;17.98;100.00;98051.16;5112984;28;20207;-52
2022/09/18 02:43:55;;;;;;;21.30;16.27;;;;;;;17.86;100.00;98041.66;5112984;28;20276;-52
2022/09/18 02:46:34;;;;;;;26.33;15.70;;;;;;;17.95;100.00;98074.19;5112877;28;20195;-52
2022/09/18 02:49:10;;;;;;;24.50;17.10;;;;;;;17.96;100.00;98076.69;5112792;28;20586;-52
2022/09/18 02:51:45;;;;;;;29.43;17.67;;;;;;;17.91;100.00;98081.50;5113082;28;20204;-56
2022/09/18 02:54:20;;;;;;;25.20;17.17;;;;;;;17.95;100.00;98089.94;5113208;28;20201;-57
2022/09/18 02:56:52;;;;;;;30.38;18.02;;;;;;;18.02;100.00;98105.09;5112942;28;20669;-57
2022/09/18 02:59:24;;;;;;;30.10;17.60;;;;;;;18.05;100.00;98104.84;5112378;28;20269;-57
2022/09/18 03:01:55;;;;;;;25.25;17.50;;;;;;;18.12;100.00;98107.78;5112766;28;20202;-58
2022/09/18 03:04:24;;;;;;;27.40;18.00;;;;;;;18.13;100.00;98126.03;5112751;28;20201;-56
2022/09/18 03:06:52;;;;;;;25.80;18.50;;;;;;;18.18;100.00;98141.41;5112772;28;20194;-56
2022/09/18 03:09:19;;;;;;;27.90;17.88;;;;;;;18.24;100.00;98151.44;5112269;28;20226;-57
2022/09/18 03:11:48;;;;;;;25.45;18.13;;;;;;;18.10;100.00;98123.66;5112713;28;20203;-57
2022/09/18 03:14:15;;;;;;;27.17;17.95;;;;;;;18.28;100.00;98150.22;5112612;28;20258;-53
2022/09/18 03:16:42;;;;;;;23.13;15.82;;;;;;;18.33;100.00;98161.19;5112266;28;20198;-53
2022/09/18 03:19:13;;;;;;;20.02;14.38;;;;;;;18.29;100.00;98169.41;5112523;28;20607;-52
2022/09/18 03:21:40;;;;;;;18.15;13.10;;;;;;;18.20;100.00;98175.44;5112153;28;20206;-53
2022/09/18 03:24:07;;;;;;;16.17;12.63;;;;;;;18.16;100.00;98190.63;5112170;28;20194;-53
2022/09/18 03:26:34;;;;;;;16.43;11.57;;;;;;;18.12;100.00;98199.69;5111838;28;20201;-53
2022/09/18 03:29:01;;;;;;;15.57;12.40;;;;;;;18.14;100.00;98196.00;5112219;28;20247;-53
2022/09/18 03:31:28;;;;;;;16.10;12.17;;;;;;;18.13;100.00;98204.81;5111829;28;20232;-57
2022/09/18 03:33:55;;;;;;;14.30;11.10;;;;;;;17.94;100.00;98188.06;5111730;28;20317;-52
2022/09/18 03:36:23;;;;;;;10.00;8.33;;;;;;;18.05;100.00;98209.88;5111773;28;20209;-53
2022/09/18 03:38:50;;;;;;;7.93;5.80;;;;;;;17.94;100.00;98227.44;5111528;28;20244;-52
2022/09/18 03:41:17;;;;;;;5.35;4.85;;;;;;;17.93;100.00;98228.38;5111710;28;20280;-53
2022/09/18 03:43:44;;;;;;;3.87;3.57;;;;;;;17.81;100.00;98242.47;5111724;28;20688;-52
2022/09/18 03:46:11;;;;;;;3.70;3.30;;;;;;;17.77;100.00;98254.97;5111888;28;20678;-52
2022/09/18 03:48:38;;;;;;;5.43;2.90;;;;;;;17.71;100.00;98255.47;5109346;28;20198;-52
2022/09/18 03:51:05;;;;;;;3.40;3.10;;;;;;;17.69;100.00;98270.50;5111730;28;20589;-52
2022/09/18 03:53:33;;;;;;;4.20;3.27;;;;;;;17.64;100.00;98277.88;5111248;28;20194;-52
2022/09/18 03:56:00;;;;;;;3.57;3.37;;;;;;;17.63;100.00;98279.66;5111736;28;20466;-58
2022/09/18 03:58:27;;;;;;;4.70;3.37;;;;;;;17.64;100.00;98280.50;5107686;28;20250;-52
2022/09/18 04:00:54;;;;;;;6.27;3.20;;;;;;;17.63;100.00;98294.56;5110454;28;20218;-58
2022/09/18 04:03:21;;;;;;;8.43;3.60;;;;;;;17.62;100.00;98292.88;5110325;27;20753;-56
2022/09/18 04:05:49;;;;;;;3.83;3.53;;;;;;;17.64;100.00;98312.00;5110471;28;20232;-57
2022/09/18 04:08:17;;;;;;;4.17;3.27;;;;;;;17.66;100.00;98321.41;5106442;28;20297;-56
2022/09/18 04:10:47;;;;;;;3.40;3.20;;;;;;;17.61;100.00;98333.16;5110779;28;20207;-57
2022/09/18 04:13:14;;;;;;;3.77;3.30;;;;;;;17.50;100.00;98335.78;5110316;28;20246;-57
2022/09/18 04:15:41;;;;;;;3.33;2.70;;;;;;;17.38;100.00;98363.78;5110610;28;20738;-57
2022/09/18 04:18:08;;;;;;;3.80;2.73;;;;;;;17.28;100.00;98381.97;5111194;28;20257;-57
2022/09/18 04:20:35;;;;;;;2.80;2.60;;;;;;;17.20;100.00;98375.63;5109908;28;20205;-57
2022/09/18 04:23:02;;;;;;;2.40;2.20;;;;;;;17.08;100.00;98395.72;5111024;28;20199;-57
2022/09/18 04:25:28;;;;;;;2.37;2.17;;;;;;;16.96;100.00;98407.09;5110794;28;20201;-57
2022/09/18 04:27:57;;;;;;;4.17;1.97;;;;;;;16.84;100.00;98411.44;5110835;28;20208;-57
2022/09/18 04:30:24;;;;;;;4.30;2.07;;;;;;;16.91;100.00;98427.56;5110668;28;20202;-57
2022/09/18 04:32:51;;;;;;;2.20;1.33;;;;;;;16.77;100.00;98439.03;5110917;28;20277;-57
2022/09/18 04:35:18;;;;;;;1.60;1.50;;;;;;;16.70;100.00;98435.19;5110596;28;20203;-57
2022/09/18 04:37:45;;;;;;;1.20;1.20;;;;;;;16.60;100.00;98442.81;5110753;28;20202;-58
2022/09/18 04:40:12;;;;;;;1.50;1.40;;;;;;;16.62;100.00;98456.66;5110663;28;20222;-58
2022/09/18 04:42:39;;;;;;;3.00;1.27;;;;;;;16.65;100.00;98463.47;5110150;28;20201;-58
2022/09/18 04:45:09;;;;;;;1.20;1.10;;;;;;;16.65;100.00;98472.19;5110171;28;20598;-57
2022/09/18 04:47:36;;;;;;;1.00;1.00;;;;;;;16.70;100.00;98475.31;5109825;28;20201;-58
2022/09/18 04:50:07;;;;;;;2.77;1.60;;;;;;;16.78;100.00;98477.41;5110137;28;20208;-57
2022/09/18 04:52:34;;;;;;;2.47;1.50;;;;;;;16.88;100.00;98488.06;5109881;28;20211;-57
2022/09/18 04:55:01;;;;;;;2.47;0.93;;;;;;;16.95;100.00;98489.28;5109850;28;20205;-57
2022/09/18 04:57:28;;;;;;;1.03;1.00;;;;;;;17.06;100.00;98492.00;5109760;28;20541;-56
2022/09/18 04:59:55;;;;;;;0.80;0.80;;;;;;;17.14;100.00;98500.16;5109604;28;20214;-57
2022/09/18 05:02:24;;;;;;;1.10;1.00;;;;;;;17.19;100.00;98503.28;5109706;28;20186;-57
2022/09/18 05:04:50;;;;;;;0.90;0.90;;;;;;;17.20;100.00;98519.84;5109646;28;20194;-57
2022/09/18 05:07:17;;;;;;;3.38;1.20;;;;;;;17.33;100.00;98521.50;5109408;28;20445;-56
2022/09/18 05:09:44;;;;;;;1.67;1.10;;;;;;;17.53;99.71;98527.91;5108716;28;20183;-56
2022/09/18 05:12:11;;;;;;;2.23;1.37;;;;;;;18.13;97.51;98533.06;5108494;28;20197;-56
2022/09/18 05:14:38;;;;;;;4.10;1.35;;;;;;;19.38;92.70;98528.59;5107256;28;20289;-56
2022/09/18 05:17:05;;;;;;;2.80;1.40;;;;;;;20.56;85.78;98535.50;5107299;28;20208;-57
2022/09/18 05:19:33;;;;;;;1.17;1.17;;;;;;;21.12;83.42;98548.22;5106850;28;20614;-56
2022/09/18 05:22:00;;;;;;;1.38;1.27;;;;;;;21.17;82.48;98554.78;5108849;28;20257;-56
2022/09/18 05:24:27;;;;;;;1.38;1.35;;;;;;;20.52;85.74;98545.50;5108328;28;20289;-57
2022/09/18 05:26:54;;;;;;;1.42;1.00;;;;;;;19.44;89.72;98550.94;5108587;28;20190;-56
2022/09/18 05:29:21;;;;;;;1.10;1.10;;;;;;;18.74;91.68;98557.31;5108374;28;20190;-56
2022/09/18 05:31:48;;;;;;;1.10;1.10;;;;;;;18.36;91.61;98569.91;5108396;28;20346;-57
2022/09/18 05:34:17;;;;;;;1.55;1.27;;;;;;;18.01;94.49;98560.25;5109259;28;20725;-57
2022/09/18 05:36:46;;;;;;;2.03;1.25;;;;;;;17.88;95.42;98571.75;5108773;28;20222;-56
2022/09/18 05:39:12;;;;;;;1.70;1.50;;;;;;;17.89;95.69;98576.91;5105681;28;20214;-56
2022/09/18 05:41:39;;;;;;;1.55;1.48;;;;;;;17.92;96.08;98581.94;5108212;28;20277;-56
2022/09/18 05:44:06;;;;;;;0.97;0.97;;;;;;;18.13;94.90;98585.59;5108281;28;20226;-57
2022/09/18 05:46:33;;;;;;;0.80;0.80;;;;;;;18.55;92.53;98585.94;5105254;28;20225;-56
2022/09/18 05:49:00;;;;;;;1.50;1.23;;;;;;;19.05;91.52;98599.66;5108788;28;20234;-56
2022/09/18 05:51:27;;;;;;;4.65;1.15;;;;;;;19.03;89.80;98575.25;5108857;28;20652;-56
2022/09/18 05:53:56;;;;;;;2.15;1.15;;;;;;;19.01;89.30;98599.06;5108915;28;20674;-56
2022/09/18 05:56:23;;;;;;;7.13;1.25;;;;;;;19.12;89.30;98598.22;5108583;28;20198;-56
2022/09/18 05:58:50;;;;;;;2.33;1.00;;;;;;;19.12;89.05;98601.69;5108308;28;20214;-57
2022/09/18 06:01:16;;;;;;;3.65;1.45;;;;;;;19.45;88.09;98608.72;5108897;28;20243;-56
2022/09/18 06:03:43;;;;;;;1.38;1.00;;;;;;;19.86;86.23;98615.13;5108677;28;20710;-56
2022/09/18 06:06:10;;;;;;;2.35;1.10;;;;;;;20.33;82.11;98627.00;5107851;28;20207;-56
2022/09/18 06:08:37;;;;;;;3.05;1.10;;;;;;;20.92;78.08;98623.84;5109059;28;20198;-58
2022/09/18 06:11:05;;;;;;;0.85;0.85;;;;;;;21.69;73.13;98637.34;5109109;28;20281;-59
2022/09/18 06:13:32;;;;;;;3.70;1.10;;;;;;;22.58;70.03;98660.13;5109346;28;20194;-60
2022/09/18 06:16:00;;;;;;;1.77;1.45;;;;;;;23.15;67.04;98658.38;5109166;28;20567;-59
2022/09/18 06:18:26;;;;;;;1.55;1.20;;;;;;;23.07;65.82;98667.03;5108701;28;20287;-60
2022/09/18 06:20:56;;;;;;;1.23;1.13;;;;;;;23.13;64.80;98671.78;5108732;28;20201;-60
2022/09/18 06:23:24;;;;;;;1.20;1.10;;;;;;;23.23;63.16;98645.28;5109302;28;20190;-61
2022/09/18 06:25:57;;;;;;;1.73;1.00;;;;;;;24.08;62.55;98676.78;5109303;28;20588;-53
2022/09/18 06:28:26;;;;;;;3.15;1.20;;;;;;;25.03;58.07;98676.16;5109084;28;20275;-53
2022/09/18 06:30:53;;;;;;;1.00;1.00;;;;;;;25.10;55.77;98681.66;5106823;28;20248;-53
2022/09/18 06:33:20;;;;;;;1.45;1.20;;;;;;;25.39;54.04;98678.69;5108603;28;20711;-53
2022/09/18 06:35:48;;;;;;;1.27;1.23;;;;;;;25.23;52.22;98690.06;5108518;28;20281;-53
2022/09/18 06:38:16;;;;;;;1.25;1.13;;;;;;;25.63;51.34;98700.09;5108743;28;20203;-53
2022/09/18 06:40:49;;;;;;;2.20;1.40;;;;;;;26.04;50.06;98715.22;5104860;28;20206;-53
2022/09/18 06:43:16;;;;;;;1.45;1.40;;;;;;;26.67;48.96;98709.34;5109835;28;20674;-53
2022/09/18 06:45:50;;;;;;;4.30;1.70;;;;;;;26.68;47.64;98719.00;5112250;28;20183;-52
2022/09/18 06:48:17;;;;;;;1.40;1.23;;;;;;;26.95;46.66;98714.41;5112471;28;20197;-52
2022/09/18 06:50:44;;;;;;;1.45;1.38;;;;;;;26.62;46.29;98724.19;5112069;28;20191;-53
2022/09/18 06:53:11;;;;;;;3.97;1.33;;;;;;;26.87;46.39;98725.00;5112003;28;20285;-52
2022/09/18 06:55:38;;;;;;;1.35;1.35;;;;;;;27.58;44.45;98721.63;5112132;28;20614;-53
2022/09/18 06:58:05;;;;;;;2.45;1.48;;;;;;;27.19;44.62;98730.34;5111684;28;25078;-53
2022/09/18 07:00:32;;;;;;;1.60;1.50;;;;;;;25.80;47.51;98725.75;5108618;28;20211;-53
2022/09/18 07:03:02;;;;;;;2.95;1.77;;;;;;;25.01;50.33;98735.72;5112435;28;20193;-52
2022/09/18 07:05:31;;;;;;;4.53;1.60;;;;;;;23.61;53.26;98739.63;5111931;28;20584;-52
2022/09/18 07:07:58;;;;;;;1.80;1.70;;;;;;;22.18;56.38;98733.44;5111841;28;20737;-59
2022/09/18 07:10:26;;;;;;;2.08;1.88;;;;;;;21.32;57.83;98737.44;5112395;28;20618;-58
2022/09/18 07:12:56;;;;;;;1.85;1.75;;;;;;;20.73;58.99;98748.50;5111979;28;20197;-58
2022/09/18 07:15:23;;;;;;;1.85;1.65;;;;;;;20.14;61.25;98748.06;5112192;28;20195;-58
2022/09/18 07:17:51;;;;;;;2.25;2.15;;;;;;;20.64;60.94;98747.47;5112206;28;20206;-58
2022/09/18 07:20:19;;;;;;;1.90;1.80;;;;;;;21.05;59.98;98748.47;5112166;28;20271;-59
2022/09/18 07:22:52;;;;;;;3.63;2.60;;;;;;;21.46;59.40;98739.69;5111605;28;20247;-60
2022/09/18 07:25:20;;;;;;;2.38;2.20;;;;;;;21.53;58.69;98746.16;5091941;28;20201;-60
2022/09/18 07:27:47;;;;;;;3.08;1.90;;;;;;;21.29;58.96;98749.06;5091517;28;20261;-60
2022/09/18 07:30:14;;;;;;;2.22;2.00;;;;;;;20.67;61.55;98741.09;5091234;28;20679;-59
2022/09/18 07:32:41;;;;;;;3.92;1.90;;;;;;;21.66;58.94;98751.22;5091007;28;20201;-59
2022/09/18 07:35:09;;;;;;;2.25;2.05;;;;;;;24.03;52.38;98750.63;5091124;28;20253;-60
2022/09/18 07:37:37;;;;;;;1.75;1.65;;;;;;;26.50;46.54;98763.59;5090644;28;20203;-60
2022/09/18 07:40:05;;;;;;;1.80;1.70;;;;;;;27.28;43.00;98763.97;5091606;28;20215;-60
2022/09/18 07:42:32;;;;;;;1.70;1.60;;;;;;;26.11;44.93;98767.75;5091181;28;20244;-60
2022/09/18 07:44:59;;;;;;;5.40;2.00;;;;;;;25.20;46.15;98768.22;5091187;28;20705;-60
2022/09/18 07:47:26;;;;;;;1.98;1.88;;;;;;;25.91;45.00;98776.00;5091255;28;20199;-52
2022/09/18 07:49:54;;;;;;;2.25;2.15;;;;;;;25.93;45.82;98770.53;5091490;28;20642;-53
2022/09/18 07:52:21;;;;;;;2.25;2.05;;;;;;;24.85;46.54;98769.06;5090989;28;20204;-52
2022/09/18 07:54:50;;;;;;;4.70;2.47;;;;;;;24.13;48.78;98769.97;5090959;28;20211;-52
2022/09/18 07:57:17;;;;;;;3.42;2.97;;;;;;;23.08;51.09;98769.31;5091036;28;20561;-53
2022/09/18 07:59:44;;;;;;;4.40;2.45;;;;;;;21.87;54.68;98764.34;5090788;28;20225;-52
2022/09/18 08:02:11;;;;;;;2.38;1.83;;;;;;;21.13;57.42;98785.59;5091172;28;20207;-53
2022/09/18 08:04:39;;;;;;;3.63;2.00;;;;;;;20.68;58.95;98795.50;5091009;28;20248;-52
2022/09/18 08:07:06;;;;;;;1.73;1.73;;;;;;;20.07;60.64;98791.69;5090815;28;20206;-53
2022/09/18 08:09:32;;;;;;;2.25;1.92;;;;;;;19.62;63.22;98788.22;5090842;28;20278;-52
2022/09/18 08:12:02;;;;;;;2.15;2.03;;;;;;;19.29;64.20;98794.22;5090725;28;20294;-53
2022/09/18 08:14:29;;;;;;;2.10;2.00;;;;;;;19.11;65.21;98794.66;5090595;28;20202;-51
2022/09/18 08:16:56;;;;;;;1.60;1.50;;;;;;;18.81;65.19;98771.50;5090880;28;20199;-52
2022/09/18 08:19:24;;;;;;;4.47;1.60;;;;;;;18.78;65.47;98792.75;5090709;28;20227;-52
2022/09/18 08:21:51;;;;;;;1.85;1.75;;;;;;;18.45;67.16;98805.69;5090554;28;20191;-52
2022/09/18 08:24:17;;;;;;;1.95;1.85;;;;;;;18.41;67.93;98798.97;5090444;28;20207;-52
2022/09/18 08:26:45;;;;;;;3.97;1.85;;;;;;;18.34;68.44;98805.63;5090303;28;20206;-51
2022/09/18 08:29:17;;;;;;;2.03;1.33;;;;;;;18.16;68.42;98804.31;5090596;28;20267;-52
2022/09/18 08:31:45;;;;;;;1.98;1.83;;;;;;;18.12;69.04;98808.94;5090296;28;20278;-52
2022/09/18 08:34:12;;;;;;;1.67;1.60;;;;;;;18.18;69.06;98805.03;5090457;28;20843;-53
2022/09/18 08:36:39;;;;;;;2.60;1.73;;;;;;;18.12;69.33;98804.53;5090146;28;20210;-53
2022/09/18 08:39:07;;;;;;;1.73;1.63;;;;;;;18.12;68.52;98804.53;5090160;28;20199;-53
2022/09/18 08:41:56;;;;;;;2.10;2.00;;;;;;;18.05;68.87;98800.66;5090031;28;20219;-53
2022/09/18 08:44:28;;;;;;;3.83;1.90;;;;;;;17.94;68.06;98790.09;5090376;28;20575;-51
2022/09/18 08:47:02;;;;;;;1.47;1.30;;;;;;;17.86;68.65;98802.88;5090306;28;20199;-51
2022/09/18 08:49:34;;;;;;;2.40;1.50;;;;;;;17.89;68.38;98804.47;5089892;28;20231;-53
2022/09/18 08:52:06;;;;;;;4.00;1.30;;;;;;;18.07;67.71;98800.53;5090200;28;20199;-53
2022/09/18 08:54:46;;;;;;;4.00;1.60;;;;;;;18.62;64.44;98800.09;5090071;28;20198;-53
2022/09/18 08:57:19;;;;;;;1.17;1.17;;;;;;;18.89;63.29;98793.72;5090023;28;20195;-53
2022/09/18 08:59:52;;;;;;;3.05;1.30;;;;;;;18.91;62.72;98789.22;5089660;28;20245;-52
2022/09/18 09:02:32;;;;;;;3.30;1.85;;;;;;;18.93;62.54;98795.19;5090357;28;20195;-52
2022/09/18 09:05:03;;;;;;;1.55;1.45;;;;;;;19.08;62.69;98809.81;5090321;28;20199;-52
2022/09/18 09:07:47;;;;;;;2.17;1.42;;;;;;;19.39;62.06;98809.19;5089454;28;20202;-53
2022/09/18 09:10:33;;;;;;;2.45;1.50;;;;;;;19.57;61.38;98807.81;5089920;28;20195;-52
2022/09/18 09:13:20;;;;;;;1.35;1.25;;;;;;;19.62;60.80;98825.06;5089903;28;20223;-53
2022/09/18 09:15:54;;;;;;;2.60;1.45;;;;;;;19.46;60.91;98793.78;5089701;28;20201;-52
2022/09/18 09:18:25;;;;;;;2.25;1.40;;;;;;;19.50;60.60;98793.47;5089827;28;20207;-53
2022/09/18 09:20:53;;;;;;;1.58;1.45;;;;;;;19.70;60.24;98804.25;5089462;28;20234;-52
2022/09/18 09:23:35;;;;;;;2.25;1.42;;;;;;;20.04;59.80;98805.91;5089880;28;20350;-53
2022/09/18 09:26:06;;;;;;;6.18;1.70;;;;;;;20.14;59.29;98812.13;5089740;28;20195;-53
2022/09/18 09:28:45;;;;;;;2.22;1.60;;;;;;;20.23;59.06;98811.41;5089566;28;20195;-52
2022/09/18 09:31:15;;;;;;;4.43;1.60;;;;;;;19.97;57.42;98815.28;5089483;28;20432;-53
2022/09/18 09:33:54;;;;;;;2.20;1.52;;;;;;;19.91;58.58;98821.00;5089375;28;20304;-52
2022/09/18 09:36:25;;;;;;;1.70;1.60;;;;;;;19.90;57.88;98822.81;5089695;28;20206;-52
2022/09/18 09:38:57;;;;;;;4.07;1.48;;;;;;;20.07;57.90;98821.50;5089526;28;20293;-53
2022/09/18 09:41:32;;;;;;;1.20;1.10;;;;;;;20.29;55.50;98818.84;5089372;28;20729;-53
2022/09/18 09:44:10;;;;;;;3.67;1.38;;;;;;;20.21;54.99;98821.22;5089503;28;20203;-52
2022/09/18 09:46:50;;;;;;;2.05;1.88;;;;;;;20.19;55.46;98830.22;5089419;28;20199;-51
2022/09/18 09:49:23;;;;;;;2.75;1.50;;;;;;;20.19;56.42;98825.78;5089416;28;20584;-52
2022/09/18 09:51:58;;;;;;;1.90;1.20;;;;;;;20.18;56.92;98829.38;5089175;28;20671;-52
2022/09/18 09:54:25;;;;;;;1.33;1.33;;;;;;;20.31;56.79;98835.34;5089242;28;20195;-53
2022/09/18 09:57:00;;;;;;;1.52;1.45;;;;;;;20.21;56.50;98841.47;5089264;28;20245;-52
2022/09/18 09:59:36;;;;;;;1.30;1.30;;;;;;;20.18;56.65;98839.09;5089300;28;20655;-52
2022/09/18 10:02:27;;;;;;;2.05;1.33;;;;;;;20.16;56.45;98836.56;5089408;28;20201;-52
2022/09/18 10:05:03;;;;;;;7.28;1.27;;;;;;;20.05;54.87;98833.94;5089419;28;20299;-53
2022/09/18 10:07:34;;;;;;;4.63;1.52;;;;;;;19.88;55.70;98837.03;5088985;28;20205;-60
2022/09/18 10:10:10;;;;;;;1.48;1.38;;;;;;;19.79;55.92;98808.78;5089303;28;20199;-59
2022/09/18 10:12:50;;;;;;;3.72;1.50;;;;;;;20.01;56.16;98839.56;5089061;28;20584;-59
2022/09/18 10:15:21;;;;;;;1.52;1.42;;;;;;;20.02;57.54;98828.06;5089406;28;20202;-60
2022/09/18 10:17:52;;;;;;;1.20;1.10;;;;;;;19.97;56.39;98840.78;5089646;28;20288;-59
2022/09/18 10:20:26;;;;;;;2.45;1.55;;;;;;;19.89;57.15;98836.09;5092917;28;20233;-52
2022/09/18 10:22:55;;;;;;;1.70;1.60;;;;;;;19.87;57.51;98843.25;5092934;28;20260;-51
2022/09/18 10:25:30;;;;;;;2.35;1.60;;;;;;;19.88;55.48;98843.16;5092861;28;20629;-53
2022/09/18 10:27:57;;;;;;;3.90;2.00;;;;;;;19.96;56.19;98839.94;5092836;28;20290;-52
2022/09/18 10:30:24;;;;;;;3.60;1.52;;;;;;;20.19;55.74;98846.03;5092932;28;20691;-53
2022/09/18 10:32:52;;;;;;;2.60;1.40;;;;;;;20.43;54.85;98849.38;5092762;28;20199;-52
2022/09/18 10:35:40;;;;;;;4.45;1.55;;;;;;;20.50;54.41;98845.31;5092782;28;20784;-53
2022/09/18 10:38:28;;;;;;;1.58;1.35;;;;;;;20.73;53.59;98845.25;5092810;28;20202;-52
2022/09/18 10:40:56;;;;;;;6.28;1.40;;;;;;;20.67;53.39;98838.66;5107413;28;20767;-59
2022/09/18 10:43:23;;;;;;;3.75;1.58;;;;;;;20.82;52.33;98829.50;5113049;28;20203;-59
2022/09/18 10:45:53;;;;;;;2.05;1.85;;;;;;;21.03;52.33;98838.31;5111483;28;20573;-60
2022/09/18 10:48:24;;;;;;;1.88;1.77;;;;;;;20.96;51.30;98841.56;5095606;28;20280;-60
2022/09/18 10:50:55;;;;;;;3.00;1.70;;;;;;;20.92;51.15;98851.53;5092512;28;20195;-60
2022/09/18 10:53:29;;;;;;;3.25;1.63;;;;;;;20.78;51.27;98822.81;5092627;28;20697;-60
2022/09/18 10:56:03;;;;;;;3.60;1.65;;;;;;;20.93;52.46;98844.47;5092559;28;20638;-60
2022/09/18 10:58:32;;;;;;;1.90;1.80;;;;;;;20.94;53.44;98846.97;5111924;28;20728;-59
2022/09/18 11:01:02;;;;;;;3.17;1.90;;;;;;;20.86;53.13;98848.56;5111277;28;20705;-60
2022/09/18 11:03:41;;;;;;;5.10;1.80;;;;;;;20.77;52.43;98852.78;5109633;28;20281;-58
2022/09/18 11:06:15;;;;;;;3.22;1.80;;;;;;;20.76;52.82;98851.13;5109605;28;20244;-59
2022/09/18 11:08:45;;;;;;;3.05;2.10;;;;;;;20.77;53.16;98842.22;5111500;28;20199;-52
2022/09/18 11:11:20;;;;;;;7.68;1.90;;;;;;;20.78;52.36;98858.88;5109686;28;20194;-52
2022/09/18 11:13:52;;;;;;;3.25;1.65;;;;;;;20.78;51.77;98854.44;5111429;28;20614;-52
2022/09/18 11:16:24;;;;;;;2.15;1.40;;;;;;;20.73;51.70;98845.25;5111582;28;20206;-53
2022/09/18 11:19:04;;;;;;;2.72;1.70;;;;;;;20.55;52.25;98835.22;5109616;28;20198;-54
2022/09/18 11:21:32;;;;;;;2.08;1.88;;;;;;;20.69;52.22;98855.19;5110863;28;20207;-52
2022/09/18 11:24:03;;;;;;;2.25;1.58;;;;;;;20.69;52.45;98865.75;5111467;28;20194;-52
2022/09/18 11:26:32;;;;;;;2.45;1.73;;;;;;;20.63;52.25;98877.66;5110817;28;20248;-52
2022/09/18 11:29:02;;;;;;;2.30;1.50;;;;;;;20.69;52.95;98872.81;5111140;28;20206;-53
2022/09/18 11:31:40;;;;;;;2.25;1.55;;;;;;;20.78;53.81;98858.88;5109299;28;20190;-52
2022/09/18 11:34:20;;;;;;;3.22;1.90;;;;;;;20.85;53.38;98875.91;5109363;28;20232;-53
2022/09/18 11:36:49;;;;;;;1.67;1.58;;;;;;;20.91;53.26;98873.59;5112145;28;20682;-51
2022/09/18 11:39:23;;;;;;;1.75;1.65;;;;;;;20.98;52.84;98874.78;5111441;28;20187;-51
2022/09/18 11:41:52;;;;;;;1.60;1.50;;;;;;;20.97;53.10;98885.47;5110985;28;20217;-52